sensor_id;sensor_type;location;lat;lon;timestamp;temperature;humidity
6738;DHT22;3406;49.902;8.596;2023-02-01T00:01:08;6.10;99.90
6738;DHT22;3406;49.902;8.596;2023-02-01T00:03:35;6.10;99.90
6738;DHT22;3406;49.902;8.596;2023-02-01T00:06:03;6.10;99.90
6738;DHT22;3406;49.902;8.596;2023-02-01T00:08:30;6.10;99.90
6738;DHT22;3406;49.902;8.596;2023-02-01T00:11:01;6.10;99.90
6738;DHT22;3406;49.902;8.596;2023-02-01T00:13:29;6.10;99.90
6738;DHT22;3406;49.902;8.596;2023-02-01T00:16:03;6.10;99.90
6738;DHT22;3406;49.902;8.596;2023-02-01T00:18:29;6.10;99.90
6738;DHT22;3406;49.902;8.596;2023-02-01T00:20:56;6.10;99.90
6738;DHT22;3406;49.902;8.596;2023-02-01T00:23:24;6.10;99.90
6738;DHT22;3406;49.902;8.596;2023-02-01T00:25:50;6.10;99.90
6738;DHT22;3406;49.902;8.596;2023-02-01T00:28:17;6.10;99.90
6738;DHT22;3406;49.902;8.596;2023-02-01T00:30:44;6.10;99.90
6738;DHT22;3406;49.902;8.596;2023-02-01T00:33:10;6.10;99.90
6738;DHT22;3406;49.902;8.596;2023-02-01T00:35:37;6.10;99.90
6738;DHT22;3406;49.902;8.596;2023-02-01T00:38:03;6.10;99.90
6738;DHT22;3406;49.902;8.596;2023-02-01T00:40:31;6.10;99.90
6738;DHT22;3406;49.902;8.596;2023-02-01T00:42:58;6.10;99.90
6738;DHT22;3406;49.902;8.596;2023-02-01T00:45:25;6.10;99.90
6738;DHT22;3406;49.902;8.596;2023-02-01T00:47:51;6.10;99.90
6738;DHT22;3406;49.902;8.596;2023-02-01T00:50:18;6.10;99.90
6738;DHT22;3406;49.902;8.596;2023-02-01T00:52:45;6.10;99.90
6738;DHT22;3406;49.902;8.596;2023-02-01T00:55:11;6.10;99.90
6738;DHT22;3406;49.902;8.596;2023-02-01T00:57:39;6.20;99.90
6738;DHT22;3406;49.902;8.596;2023-02-01T01:00:07;6.20;99.90
6738;DHT22;3406;49.902;8.596;2023-02-01T01:02:34;6.20;99.90
6738;DHT22;3406;49.902;8.596;2023-02-01T01:05:00;6.10;99.90
6738;DHT22;3406;49.902;8.596;2023-02-01T01:07:27;6.10;99.90
6738;DHT22;3406;49.902;8.596;2023-02-01T01:09:54;6.10;99.90
6738;DHT22;3406;49.902;8.596;2023-02-01T01:12:21;6.10;99.90
6738;DHT22;3406;49.902;8.596;2023-02-01T01:14:49;6.10;99.90
6738;DHT22;3406;49.902;8.596;2023-02-01T01:17:15;6.10;99.90
6738;DHT22;3406;49.902;8.596;2023-02-01T01:19:42;6.10;99.90
6738;DHT22;3406;49.902;8.596;2023-02-01T01:22:09;6.10;99.90
6738;DHT22;3406;49.902;8.596;2023-02-01T01:24:35;6.10;99.90
6738;DHT22;3406;49.902;8.596;2023-02-01T01:27:02;6.10;99.90
6738;DHT22;3406;49.902;8.596;2023-02-01T01:29:29;6.20;99.90
6738;DHT22;3406;49.902;8.596;2023-02-01T01:31:57;6.20;99.90
6738;DHT22;3406;49.902;8.596;2023-02-01T01:34:23;6.20;99.90
6738;DHT22;3406;49.902;8.596;2023-02-01T01:36:50;6.20;99.90
6738;DHT22;3406;49.902;8.596;2023-02-01T01:39:16;6.20;99.90
6738;DHT22;3406;49.902;8.596;2023-02-01T01:41:43;6.20;99.90
6738;DHT22;3406;49.902;8.596;2023-02-01T01:47:22;6.20;99.90
6738;DHT22;3406;49.902;8.596;2023-02-01T01:49:50;6.20;99.90
6738;DHT22;3406;49.902;8.596;2023-02-01T01:52:17;6.20;99.90
6738;DHT22;3406;49.902;8.596;2023-02-01T01:54:46;6.20;99.90
6738;DHT22;3406;49.902;8.596;2023-02-01T01:57:17;6.20;99.90
6738;DHT22;3406;49.902;8.596;2023-02-01T01:59:48;6.20;99.90
6738;DHT22;3406;49.902;8.596;2023-02-01T02:02:17;6.20;99.90
6738;DHT22;3406;49.902;8.596;2023-02-01T02:04:46;6.20;99.90
6738;DHT22;3406;49.902;8.596;2023-02-01T02:07:17;6.20;99.90
6738;DHT22;3406;49.902;8.596;2023-02-01T02:09:45;6.10;99.90
6738;DHT22;3406;49.902;8.596;2023-02-01T02:12:12;6.20;99.90
6738;DHT22;3406;49.902;8.596;2023-02-01T02:14:39;6.20;99.90
6738;DHT22;3406;49.902;8.596;2023-02-01T02:17:14;6.20;99.90
6738;DHT22;3406;49.902;8.596;2023-02-01T02:20:13;6.20;99.90
6738;DHT22;3406;49.902;8.596;2023-02-01T02:22:54;6.20;99.90
6738;DHT22;3406;49.902;8.596;2023-02-01T02:28:30;6.20;99.90
6738;DHT22;3406;49.902;8.596;2023-02-01T02:31:28;6.20;99.90
6738;DHT22;3406;49.902;8.596;2023-02-01T02:34:04;6.20;99.90
6738;DHT22;3406;49.902;8.596;2023-02-01T02:36:39;6.20;99.90
6738;DHT22;3406;49.902;8.596;2023-02-01T02:39:16;6.20;99.90
6738;DHT22;3406;49.902;8.596;2023-02-01T02:41:50;6.20;99.90
6738;DHT22;3406;49.902;8.596;2023-02-01T02:44:45;6.30;99.90
6738;DHT22;3406;49.902;8.596;2023-02-01T02:47:36;6.20;99.90
6738;DHT22;3406;49.902;8.596;2023-02-01T02:50:15;6.30;99.90
6738;DHT22;3406;49.902;8.596;2023-02-01T02:53:05;6.30;99.90
6738;DHT22;3406;49.902;8.596;2023-02-01T02:55:55;6.30;99.90
6738;DHT22;3406;49.902;8.596;2023-02-01T02:58:40;6.30;99.90
6738;DHT22;3406;49.902;8.596;2023-02-01T03:01:25;6.30;99.90
6738;DHT22;3406;49.902;8.596;2023-02-01T03:04:10;6.40;99.90
6738;DHT22;3406;49.902;8.596;2023-02-01T03:06:44;6.40;99.90
6738;DHT22;3406;49.902;8.596;2023-02-01T03:09:15;6.40;99.90
6738;DHT22;3406;49.902;8.596;2023-02-01T03:11:44;6.40;99.90
6738;DHT22;3406;49.902;8.596;2023-02-01T03:14:33;6.40;99.90
6738;DHT22;3406;49.902;8.596;2023-02-01T03:17:06;6.30;99.90
6738;DHT22;3406;49.902;8.596;2023-02-01T03:19:37;6.40;99.90
6738;DHT22;3406;49.902;8.596;2023-02-01T03:22:12;6.30;99.90
6738;DHT22;3406;49.902;8.596;2023-02-01T03:24:43;6.30;99.90
6738;DHT22;3406;49.902;8.596;2023-02-01T03:27:14;6.30;99.90
6738;DHT22;3406;49.902;8.596;2023-02-01T03:29:47;6.30;99.90
6738;DHT22;3406;49.902;8.596;2023-02-01T03:32:15;6.20;99.90
6738;DHT22;3406;49.902;8.596;2023-02-01T03:34:42;6.20;99.90
6738;DHT22;3406;49.902;8.596;2023-02-01T03:37:11;6.20;99.90
6738;DHT22;3406;49.902;8.596;2023-02-01T03:39:47;6.20;99.90
6738;DHT22;3406;49.902;8.596;2023-02-01T03:42:17;6.20;99.90
6738;DHT22;3406;49.902;8.596;2023-02-01T03:44:49;6.20;99.90
6738;DHT22;3406;49.902;8.596;2023-02-01T03:47:20;6.20;99.90
6738;DHT22;3406;49.902;8.596;2023-02-01T03:49:50;6.20;99.90
6738;DHT22;3406;49.902;8.596;2023-02-01T03:52:22;6.20;99.90
6738;DHT22;3406;49.902;8.596;2023-02-01T03:54:51;6.20;99.90
6738;DHT22;3406;49.902;8.596;2023-02-01T03:57:23;6.20;99.90
6738;DHT22;3406;49.902;8.596;2023-02-01T03:59:51;6.20;99.90
6738;DHT22;3406;49.902;8.596;2023-02-01T04:02:17;6.20;99.90
6738;DHT22;3406;49.902;8.596;2023-02-01T04:04:44;6.20;99.90
6738;DHT22;3406;49.902;8.596;2023-02-01T04:07:11;6.20;99.90
6738;DHT22;3406;49.902;8.596;2023-02-01T04:09:39;6.20;99.90
6738;DHT22;3406;49.902;8.596;2023-02-01T04:12:06;6.20;99.90
6738;DHT22;3406;49.902;8.596;2023-02-01T04:14:33;6.20;99.90
6738;DHT22;3406;49.902;8.596;2023-02-01T04:17:00;6.20;99.90
6738;DHT22;3406;49.902;8.596;2023-02-01T04:19:26;6.20;99.90
6738;DHT22;3406;49.902;8.596;2023-02-01T04:21:53;6.20;99.90
6738;DHT22;3406;49.902;8.596;2023-02-01T04:24:20;6.20;99.90
6738;DHT22;3406;49.902;8.596;2023-02-01T04:26:48;6.20;99.90
6738;DHT22;3406;49.902;8.596;2023-02-01T04:29:14;6.20;99.90
6738;DHT22;3406;49.902;8.596;2023-02-01T04:31:41;6.20;99.90
6738;DHT22;3406;49.902;8.596;2023-02-01T04:34:08;6.20;99.90
6738;DHT22;3406;49.902;8.596;2023-02-01T04:36:34;6.20;99.90
6738;DHT22;3406;49.902;8.596;2023-02-01T04:39:01;6.20;99.90
6738;DHT22;3406;49.902;8.596;2023-02-01T04:41:28;6.20;99.90
6738;DHT22;3406;49.902;8.596;2023-02-01T04:43:56;6.20;99.90
6738;DHT22;3406;49.902;8.596;2023-02-01T04:46:23;6.20;99.90
6738;DHT22;3406;49.902;8.596;2023-02-01T04:48:50;6.30;99.90
6738;DHT22;3406;49.902;8.596;2023-02-01T04:51:16;6.30;99.90
6738;DHT22;3406;49.902;8.596;2023-02-01T04:53:43;6.30;99.90
6738;DHT22;3406;49.902;8.596;2023-02-01T04:56:10;6.30;99.90
6738;DHT22;3406;49.902;8.596;2023-02-01T04:58:36;6.30;99.90
6738;DHT22;3406;49.902;8.596;2023-02-01T05:01:06;6.30;99.90
6738;DHT22;3406;49.902;8.596;2023-02-01T05:03:34;6.30;99.90
6738;DHT22;3406;49.902;8.596;2023-02-01T05:06:00;6.30;99.90
6738;DHT22;3406;49.902;8.596;2023-02-01T05:08:29;6.30;99.90
6738;DHT22;3406;49.902;8.596;2023-02-01T05:10:56;6.30;99.90
6738;DHT22;3406;49.902;8.596;2023-02-01T05:13:24;6.30;99.90
6738;DHT22;3406;49.902;8.596;2023-02-01T05:16:09;6.30;99.90
6738;DHT22;3406;49.902;8.596;2023-02-01T05:18:36;6.30;99.90
6738;DHT22;3406;49.902;8.596;2023-02-01T05:21:03;6.30;99.90
6738;DHT22;3406;49.902;8.596;2023-02-01T05:23:30;6.30;99.90
6738;DHT22;3406;49.902;8.596;2023-02-01T05:25:58;6.30;99.90
6738;DHT22;3406;49.902;8.596;2023-02-01T05:28:26;6.30;99.90
6738;DHT22;3406;49.902;8.596;2023-02-01T05:30:53;6.30;99.90
6738;DHT22;3406;49.902;8.596;2023-02-01T05:33:21;6.30;99.90
6738;DHT22;3406;49.902;8.596;2023-02-01T05:35:47;6.30;99.90
6738;DHT22;3406;49.902;8.596;2023-02-01T05:38:15;6.30;99.90
6738;DHT22;3406;49.902;8.596;2023-02-01T05:40:42;6.30;99.90
6738;DHT22;3406;49.902;8.596;2023-02-01T05:43:14;6.30;99.90
6738;DHT22;3406;49.902;8.596;2023-02-01T05:45:41;6.20;99.90
6738;DHT22;3406;49.902;8.596;2023-02-01T05:48:08;6.20;99.90
6738;DHT22;3406;49.902;8.596;2023-02-01T05:50:36;6.30;99.90
6738;DHT22;3406;49.902;8.596;2023-02-01T05:53:02;6.30;99.90
6738;DHT22;3406;49.902;8.596;2023-02-01T05:55:29;6.30;99.90
6738;DHT22;3406;49.902;8.596;2023-02-01T05:57:56;6.30;99.90
6738;DHT22;3406;49.902;8.596;2023-02-01T06:00:23;6.30;99.90
6738;DHT22;3406;49.902;8.596;2023-02-01T06:02:50;6.30;99.90
6738;DHT22;3406;49.902;8.596;2023-02-01T06:05:16;6.30;99.90
6738;DHT22;3406;49.902;8.596;2023-02-01T06:07:44;6.30;99.90
6738;DHT22;3406;49.902;8.596;2023-02-01T06:10:11;6.30;99.90
6738;DHT22;3406;49.902;8.596;2023-02-01T06:12:38;6.30;99.90
6738;DHT22;3406;49.902;8.596;2023-02-01T06:15:06;6.30;99.90
6738;DHT22;3406;49.902;8.596;2023-02-01T06:17:32;6.30;99.90
6738;DHT22;3406;49.902;8.596;2023-02-01T06:19:59;6.20;99.90
6738;DHT22;3406;49.902;8.596;2023-02-01T06:22:26;6.20;99.90
6738;DHT22;3406;49.902;8.596;2023-02-01T06:24:53;6.20;99.90
6738;DHT22;3406;49.902;8.596;2023-02-01T06:27:20;6.20;99.90
6738;DHT22;3406;49.902;8.596;2023-02-01T06:29:47;6.20;99.90
6738;DHT22;3406;49.902;8.596;2023-02-01T06:32:13;6.10;99.90
6738;DHT22;3406;49.902;8.596;2023-02-01T06:34:40;6.10;99.90
6738;DHT22;3406;49.902;8.596;2023-02-01T06:37:07;6.10;99.90
6738;DHT22;3406;49.902;8.596;2023-02-01T06:39:34;6.10;99.90
6738;DHT22;3406;49.902;8.596;2023-02-01T06:42:02;6.10;99.90
6738;DHT22;3406;49.902;8.596;2023-02-01T06:44:29;6.10;99.90
6738;DHT22;3406;49.902;8.596;2023-02-01T06:46:56;6.10;99.90
6738;DHT22;3406;49.902;8.596;2023-02-01T06:49:22;6.00;99.90
6738;DHT22;3406;49.902;8.596;2023-02-01T06:51:49;6.00;99.90
6738;DHT22;3406;49.902;8.596;2023-02-01T06:54:16;5.90;99.90
6738;DHT22;3406;49.902;8.596;2023-02-01T06:56:42;6.00;99.90
6738;DHT22;3406;49.902;8.596;2023-02-01T06:59:11;6.00;99.90
6738;DHT22;3406;49.902;8.596;2023-02-01T07:01:38;6.00;99.90
6738;DHT22;3406;49.902;8.596;2023-02-01T07:04:05;6.00;99.90
6738;DHT22;3406;49.902;8.596;2023-02-01T07:06:32;5.90;99.90
6738;DHT22;3406;49.902;8.596;2023-02-01T07:08:58;5.90;99.90
6738;DHT22;3406;49.902;8.596;2023-02-01T07:11:25;5.90;99.90
6738;DHT22;3406;49.902;8.596;2023-02-01T07:13:53;5.90;99.90
6738;DHT22;3406;49.902;8.596;2023-02-01T07:16:21;5.90;99.90
6738;DHT22;3406;49.902;8.596;2023-02-01T07:18:49;5.80;99.90
6738;DHT22;3406;49.902;8.596;2023-02-01T07:21:16;5.80;99.90
6738;DHT22;3406;49.902;8.596;2023-02-01T07:23:43;5.80;99.90
6738;DHT22;3406;49.902;8.596;2023-02-01T07:26:12;5.80;99.90
6738;DHT22;3406;49.902;8.596;2023-02-01T07:28:39;5.80;99.90
6738;DHT22;3406;49.902;8.596;2023-02-01T07:31:08;5.80;99.90
6738;DHT22;3406;49.902;8.596;2023-02-01T07:33:36;5.70;99.90
6738;DHT22;3406;49.902;8.596;2023-02-01T07:36:05;5.70;99.90
6738;DHT22;3406;49.902;8.596;2023-02-01T07:38:33;5.70;99.90
6738;DHT22;3406;49.902;8.596;2023-02-01T07:41:01;5.60;99.90
6738;DHT22;3406;49.902;8.596;2023-02-01T07:43:28;5.60;99.90
6738;DHT22;3406;49.902;8.596;2023-02-01T07:45:55;5.60;99.90
6738;DHT22;3406;49.902;8.596;2023-02-01T07:48:23;5.60;99.90
6738;DHT22;3406;49.902;8.596;2023-02-01T07:50:58;5.60;99.90
6738;DHT22;3406;49.902;8.596;2023-02-01T07:53:25;5.60;99.90
6738;DHT22;3406;49.902;8.596;2023-02-01T07:55:52;5.60;99.90
6738;DHT22;3406;49.902;8.596;2023-02-01T07:58:19;5.60;99.90
6738;DHT22;3406;49.902;8.596;2023-02-01T08:00:45;5.60;99.90
6738;DHT22;3406;49.902;8.596;2023-02-01T08:03:30;5.70;99.90
6738;DHT22;3406;49.902;8.596;2023-02-01T08:05:58;5.60;99.90
6738;DHT22;3406;49.902;8.596;2023-02-01T08:08:24;5.70;99.90
6738;DHT22;3406;49.902;8.596;2023-02-01T08:10:51;5.70;99.90
6738;DHT22;3406;49.902;8.596;2023-02-01T08:13:19;5.70;99.90
6738;DHT22;3406;49.902;8.596;2023-02-01T08:15:46;5.70;99.90
6738;DHT22;3406;49.902;8.596;2023-02-01T08:18:13;5.70;99.90
6738;DHT22;3406;49.902;8.596;2023-02-01T08:20:41;5.70;99.90
6738;DHT22;3406;49.902;8.596;2023-02-01T08:23:12;5.80;99.90
6738;DHT22;3406;49.902;8.596;2023-02-01T08:25:39;5.80;99.90
6738;DHT22;3406;49.902;8.596;2023-02-01T08:28:06;5.80;99.90
6738;DHT22;3406;49.902;8.596;2023-02-01T08:30:33;5.90;99.90
6738;DHT22;3406;49.902;8.596;2023-02-01T08:32:59;5.90;99.90
6738;DHT22;3406;49.902;8.596;2023-02-01T08:35:26;5.90;99.90
6738;DHT22;3406;49.902;8.596;2023-02-01T08:37:53;6.00;99.90
6738;DHT22;3406;49.902;8.596;2023-02-01T08:40:21;6.00;99.90
6738;DHT22;3406;49.902;8.596;2023-02-01T08:42:47;6.10;99.90
6738;DHT22;3406;49.902;8.596;2023-02-01T08:45:17;6.20;99.90
6738;DHT22;3406;49.902;8.596;2023-02-01T08:47:45;6.30;99.90
6738;DHT22;3406;49.902;8.596;2023-02-01T08:50:12;6.30;99.90
6738;DHT22;3406;49.902;8.596;2023-02-01T08:52:39;6.40;99.90
6738;DHT22;3406;49.902;8.596;2023-02-01T08:55:07;6.40;99.90
6738;DHT22;3406;49.902;8.596;2023-02-01T08:57:35;6.50;99.90
6738;DHT22;3406;49.902;8.596;2023-02-01T09:00:03;6.50;99.90
6738;DHT22;3406;49.902;8.596;2023-02-01T09:02:30;6.60;99.90
6738;DHT22;3406;49.902;8.596;2023-02-01T09:04:56;6.50;99.90
6738;DHT22;3406;49.902;8.596;2023-02-01T09:07:23;6.60;99.90
6738;DHT22;3406;49.902;8.596;2023-02-01T09:09:50;6.60;99.90
6738;DHT22;3406;49.902;8.596;2023-02-01T09:12:16;6.60;99.90
6738;DHT22;3406;49.902;8.596;2023-02-01T09:14:44;6.60;99.90
6738;DHT22;3406;49.902;8.596;2023-02-01T09:17:11;6.60;99.90
6738;DHT22;3406;49.902;8.596;2023-02-01T09:19:39;6.60;99.90
6738;DHT22;3406;49.902;8.596;2023-02-01T09:22:05;6.60;99.90
6738;DHT22;3406;49.902;8.596;2023-02-01T09:24:32;6.70;99.90
6738;DHT22;3406;49.902;8.596;2023-02-01T09:26:59;6.70;99.90
6738;DHT22;3406;49.902;8.596;2023-02-01T09:29:25;6.80;99.90
6738;DHT22;3406;49.902;8.596;2023-02-01T09:31:53;6.80;99.90
6738;DHT22;3406;49.902;8.596;2023-02-01T09:34:20;6.90;99.90
6738;DHT22;3406;49.902;8.596;2023-02-01T09:36:46;6.90;99.90
6738;DHT22;3406;49.902;8.596;2023-02-01T09:39:13;6.90;99.90
6738;DHT22;3406;49.902;8.596;2023-02-01T09:41:48;7.00;99.90
6738;DHT22;3406;49.902;8.596;2023-02-01T09:44:43;7.00;99.90
6738;DHT22;3406;49.902;8.596;2023-02-01T09:47:16;7.00;99.90
6738;DHT22;3406;49.902;8.596;2023-02-01T09:49:50;7.00;99.90
6738;DHT22;3406;49.902;8.596;2023-02-01T09:52:22;7.10;99.90
6738;DHT22;3406;49.902;8.596;2023-02-01T09:54:54;7.10;99.70
6738;DHT22;3406;49.902;8.596;2023-02-01T09:57:26;7.10;99.30
6738;DHT22;3406;49.902;8.596;2023-02-01T09:59:58;7.20;99.00
6738;DHT22;3406;49.902;8.596;2023-02-01T10:02:28;7.10;98.80
6738;DHT22;3406;49.902;8.596;2023-02-01T10:04:58;7.20;98.60
6738;DHT22;3406;49.902;8.596;2023-02-01T10:07:31;7.20;98.30
6738;DHT22;3406;49.902;8.596;2023-02-01T10:10:03;7.20;98.00
6738;DHT22;3406;49.902;8.596;2023-02-01T10:12:53;7.30;98.00
6738;DHT22;3406;49.902;8.596;2023-02-01T10:15:34;7.30;97.80
6738;DHT22;3406;49.902;8.596;2023-02-01T10:18:23;7.30;97.10
6738;DHT22;3406;49.902;8.596;2023-02-01T10:20:57;7.30;96.40
6738;DHT22;3406;49.902;8.596;2023-02-01T10:23:58;7.30;95.80
6738;DHT22;3406;49.902;8.596;2023-02-01T10:26:32;7.30;95.40
6738;DHT22;3406;49.902;8.596;2023-02-01T10:29:01;7.40;94.90
6738;DHT22;3406;49.902;8.596;2023-02-01T10:31:31;7.40;94.70
6738;DHT22;3406;49.902;8.596;2023-02-01T10:34:10;7.40;94.60
6738;DHT22;3406;49.902;8.596;2023-02-01T10:36:41;7.40;94.30
6738;DHT22;3406;49.902;8.596;2023-02-01T10:39:11;7.50;93.80
6738;DHT22;3406;49.902;8.596;2023-02-01T10:41:39;7.50;93.40
6738;DHT22;3406;49.902;8.596;2023-02-01T10:44:11;7.50;93.10
6738;DHT22;3406;49.902;8.596;2023-02-01T10:46:39;7.50;92.80
6738;DHT22;3406;49.902;8.596;2023-02-01T10:49:12;7.50;92.60
6738;DHT22;3406;49.902;8.596;2023-02-01T10:51:43;7.50;92.40
6738;DHT22;3406;49.902;8.596;2023-02-01T10:54:17;7.50;92.00
6738;DHT22;3406;49.902;8.596;2023-02-01T10:56:46;7.40;91.90
6738;DHT22;3406;49.902;8.596;2023-02-01T10:59:18;7.50;91.60
6738;DHT22;3406;49.902;8.596;2023-02-01T11:01:47;7.50;91.30
6738;DHT22;3406;49.902;8.596;2023-02-01T11:04:16;7.50;91.10
6738;DHT22;3406;49.902;8.596;2023-02-01T11:06:46;7.50;91.00
6738;DHT22;3406;49.902;8.596;2023-02-01T11:09:19;7.60;91.00
6738;DHT22;3406;49.902;8.596;2023-02-01T11:11:55;7.60;90.60
6738;DHT22;3406;49.902;8.596;2023-02-01T11:14:31;7.60;90.10
6738;DHT22;3406;49.902;8.596;2023-02-01T11:17:02;7.60;89.90
6738;DHT22;3406;49.902;8.596;2023-02-01T11:19:38;7.60;89.10
6738;DHT22;3406;49.902;8.596;2023-02-01T11:22:05;7.60;88.70
6738;DHT22;3406;49.902;8.596;2023-02-01T11:24:35;7.60;88.40
6738;DHT22;3406;49.902;8.596;2023-02-01T11:27:06;7.60;88.20
6738;DHT22;3406;49.902;8.596;2023-02-01T11:29:41;7.60;87.80
6738;DHT22;3406;49.902;8.596;2023-02-01T11:32:09;7.60;87.20
6738;DHT22;3406;49.902;8.596;2023-02-01T11:34:43;7.60;87.10
6738;DHT22;3406;49.902;8.596;2023-02-01T11:37:24;7.60;86.90
6738;DHT22;3406;49.902;8.596;2023-02-01T11:39:56;7.60;86.60
6738;DHT22;3406;49.902;8.596;2023-02-01T11:42:23;7.60;86.20
6738;DHT22;3406;49.902;8.596;2023-02-01T11:44:50;7.60;86.00
6738;DHT22;3406;49.902;8.596;2023-02-01T11:47:23;7.60;85.60
6738;DHT22;3406;49.902;8.596;2023-02-01T11:49:53;7.60;85.50
6738;DHT22;3406;49.902;8.596;2023-02-01T11:52:46;7.60;85.40
6738;DHT22;3406;49.902;8.596;2023-02-01T11:55:39;7.60;85.30
6738;DHT22;3406;49.902;8.596;2023-02-01T11:58:19;7.60;85.20
6738;DHT22;3406;49.902;8.596;2023-02-01T12:00:59;7.60;85.10
6738;DHT22;3406;49.902;8.596;2023-02-01T12:06:28;7.60;84.90
6738;DHT22;3406;49.902;8.596;2023-02-01T12:09:09;7.60;84.90
6738;DHT22;3406;49.902;8.596;2023-02-01T12:11:50;7.60;84.80
6738;DHT22;3406;49.902;8.596;2023-02-01T12:14:26;7.60;84.60
6738;DHT22;3406;49.902;8.596;2023-02-01T12:17:11;7.70;84.50
6738;DHT22;3406;49.902;8.596;2023-02-01T12:19:56;7.70;84.10
6738;DHT22;3406;49.902;8.596;2023-02-01T12:22:36;7.70;83.50
6738;DHT22;3406;49.902;8.596;2023-02-01T12:28:28;7.70;83.30
6738;DHT22;3406;49.902;8.596;2023-02-01T12:31:25;7.70;82.80
6738;DHT22;3406;49.902;8.596;2023-02-01T12:34:13;7.80;82.60
6738;DHT22;3406;49.902;8.596;2023-02-01T12:36:47;7.80;82.60
6738;DHT22;3406;49.902;8.596;2023-02-01T12:39:23;7.80;82.10
6738;DHT22;3406;49.902;8.596;2023-02-01T12:41:56;7.80;82.00
6738;DHT22;3406;49.902;8.596;2023-02-01T12:44:32;7.80;81.80
6738;DHT22;3406;49.902;8.596;2023-02-01T12:47:06;7.80;81.80
6738;DHT22;3406;49.902;8.596;2023-02-01T12:49:43;7.90;81.60
6738;DHT22;3406;49.902;8.596;2023-02-01T12:52:15;7.90;81.30
6738;DHT22;3406;49.902;8.596;2023-02-01T12:54:48;7.90;81.10
6738;DHT22;3406;49.902;8.596;2023-02-01T12:57:17;8.00;81.00
6738;DHT22;3406;49.902;8.596;2023-02-01T12:59:51;8.00;80.40
6738;DHT22;3406;49.902;8.596;2023-02-01T13:02:25;8.00;79.80
6738;DHT22;3406;49.902;8.596;2023-02-01T13:04:59;8.00;79.50
6738;DHT22;3406;49.902;8.596;2023-02-01T13:07:31;8.00;79.40
6738;DHT22;3406;49.902;8.596;2023-02-01T13:10:08;8.00;79.30
6738;DHT22;3406;49.902;8.596;2023-02-01T13:12:43;8.00;79.20
6738;DHT22;3406;49.902;8.596;2023-02-01T13:15:16;8.00;78.90
6738;DHT22;3406;49.902;8.596;2023-02-01T13:17:44;8.00;78.70
6738;DHT22;3406;49.902;8.596;2023-02-01T13:20:19;8.00;78.70
6738;DHT22;3406;49.902;8.596;2023-02-01T13:22:50;8.00;78.70
6738;DHT22;3406;49.902;8.596;2023-02-01T13:25:27;8.00;78.60
6738;DHT22;3406;49.902;8.596;2023-02-01T13:27:57;8.00;78.50
6738;DHT22;3406;49.902;8.596;2023-02-01T13:30:32;8.00;78.30
6738;DHT22;3406;49.902;8.596;2023-02-01T13:33:20;8.00;78.40
6738;DHT22;3406;49.902;8.596;2023-02-01T13:36:17;8.00;78.20
6738;DHT22;3406;49.902;8.596;2023-02-01T13:39:24;8.00;78.30
6738;DHT22;3406;49.902;8.596;2023-02-01T13:41:58;8.00;78.40
6738;DHT22;3406;49.902;8.596;2023-02-01T13:44:28;8.00;78.20
6738;DHT22;3406;49.902;8.596;2023-02-01T13:46:58;8.00;78.20
6738;DHT22;3406;49.902;8.596;2023-02-01T13:49:27;7.90;78.20
6738;DHT22;3406;49.902;8.596;2023-02-01T13:51:56;8.00;78.20
6738;DHT22;3406;49.902;8.596;2023-02-01T13:54:27;8.00;78.20
6738;DHT22;3406;49.902;8.596;2023-02-01T13:56:56;8.10;78.20
6738;DHT22;3406;49.902;8.596;2023-02-01T13:59:49;8.10;78.10
6738;DHT22;3406;49.902;8.596;2023-02-01T14:02:49;8.10;78.10
6738;DHT22;3406;49.902;8.596;2023-02-01T14:05:56;8.10;78.00
6738;DHT22;3406;49.902;8.596;2023-02-01T14:08:37;8.10;77.80
6738;DHT22;3406;49.902;8.596;2023-02-01T14:11:04;8.10;77.70
6738;DHT22;3406;49.902;8.596;2023-02-01T14:13:33;8.10;77.60
6738;DHT22;3406;49.902;8.596;2023-02-01T14:16:15;8.10;77.60
6738;DHT22;3406;49.902;8.596;2023-02-01T14:18:59;8.10;77.70
6738;DHT22;3406;49.902;8.596;2023-02-01T14:21:29;8.10;77.40
6738;DHT22;3406;49.902;8.596;2023-02-01T14:23:59;8.10;77.10
6738;DHT22;3406;49.902;8.596;2023-02-01T14:26:40;8.10;76.90
6738;DHT22;3406;49.902;8.596;2023-02-01T14:29:25;8.10;76.80
6738;DHT22;3406;49.902;8.596;2023-02-01T14:31:58;8.10;77.00
6738;DHT22;3406;49.902;8.596;2023-02-01T14:34:34;8.10;76.90
6738;DHT22;3406;49.902;8.596;2023-02-01T14:37:05;8.10;76.70
6738;DHT22;3406;49.902;8.596;2023-02-01T14:39:36;8.10;76.70
6738;DHT22;3406;49.902;8.596;2023-02-01T14:42:14;8.20;76.80
6738;DHT22;3406;49.902;8.596;2023-02-01T14:44:44;8.20;76.70
6738;DHT22;3406;49.902;8.596;2023-02-01T14:47:32;8.20;76.40
6738;DHT22;3406;49.902;8.596;2023-02-01T14:53:17;8.20;76.10
6738;DHT22;3406;49.902;8.596;2023-02-01T14:55:49;8.20;75.80
6738;DHT22;3406;49.902;8.596;2023-02-01T14:58:23;8.30;75.90
6738;DHT22;3406;49.902;8.596;2023-02-01T15:00:54;8.20;75.70
6738;DHT22;3406;49.902;8.596;2023-02-01T15:03:36;8.30;75.80
6738;DHT22;3406;49.902;8.596;2023-02-01T15:06:19;8.30;75.80
6738;DHT22;3406;49.902;8.596;2023-02-01T15:08:47;8.30;75.60
6738;DHT22;3406;49.902;8.596;2023-02-01T15:11:16;8.30;75.60
6738;DHT22;3406;49.902;8.596;2023-02-01T15:13:48;8.30;75.60
6738;DHT22;3406;49.902;8.596;2023-02-01T15:16:17;8.30;75.60
6738;DHT22;3406;49.902;8.596;2023-02-01T15:18:44;8.30;75.60
6738;DHT22;3406;49.902;8.596;2023-02-01T15:21:17;8.30;75.70
6738;DHT22;3406;49.902;8.596;2023-02-01T15:23:44;8.30;75.60
6738;DHT22;3406;49.902;8.596;2023-02-01T15:26:24;8.30;75.50
6738;DHT22;3406;49.902;8.596;2023-02-01T15:28:51;8.30;75.60
6738;DHT22;3406;49.902;8.596;2023-02-01T15:31:33;8.40;75.60
6738;DHT22;3406;49.902;8.596;2023-02-01T15:34:00;8.40;75.70
6738;DHT22;3406;49.902;8.596;2023-02-01T15:36:27;8.40;75.60
6738;DHT22;3406;49.902;8.596;2023-02-01T15:39:19;8.40;75.40
6738;DHT22;3406;49.902;8.596;2023-02-01T15:41:50;8.40;75.50
6738;DHT22;3406;49.902;8.596;2023-02-01T15:44:20;8.40;75.50
6738;DHT22;3406;49.902;8.596;2023-02-01T15:46:50;8.40;75.40
6738;DHT22;3406;49.902;8.596;2023-02-01T15:49:25;8.40;75.30
6738;DHT22;3406;49.902;8.596;2023-02-01T15:51:53;8.30;75.30
6738;DHT22;3406;49.902;8.596;2023-02-01T15:54:24;8.30;75.20
6738;DHT22;3406;49.902;8.596;2023-02-01T15:56:54;8.30;75.20
6738;DHT22;3406;49.902;8.596;2023-02-01T15:59:23;8.30;75.10
6738;DHT22;3406;49.902;8.596;2023-02-01T16:01:52;8.30;75.00
6738;DHT22;3406;49.902;8.596;2023-02-01T16:04:21;8.30;74.80
6738;DHT22;3406;49.902;8.596;2023-02-01T16:06:50;8.30;74.80
6738;DHT22;3406;49.902;8.596;2023-02-01T16:09:18;8.30;74.70
6738;DHT22;3406;49.902;8.596;2023-02-01T16:11:54;8.30;74.50
6738;DHT22;3406;49.902;8.596;2023-02-01T16:14:22;8.30;74.60
6738;DHT22;3406;49.902;8.596;2023-02-01T16:16:50;8.30;74.60
6738;DHT22;3406;49.902;8.596;2023-02-01T16:19:18;8.30;74.40
6738;DHT22;3406;49.902;8.596;2023-02-01T16:21:45;8.20;74.30
6738;DHT22;3406;49.902;8.596;2023-02-01T16:24:12;8.20;74.40
6738;DHT22;3406;49.902;8.596;2023-02-01T16:26:39;8.30;74.50
6738;DHT22;3406;49.902;8.596;2023-02-01T16:29:05;8.20;74.40
6738;DHT22;3406;49.902;8.596;2023-02-01T16:31:34;8.20;74.40
6738;DHT22;3406;49.902;8.596;2023-02-01T16:34:02;8.20;74.50
6738;DHT22;3406;49.902;8.596;2023-02-01T16:36:31;8.20;74.40
6738;DHT22;3406;49.902;8.596;2023-02-01T16:38:58;8.20;74.40
6738;DHT22;3406;49.902;8.596;2023-02-01T16:41:25;8.30;74.40
6738;DHT22;3406;49.902;8.596;2023-02-01T16:43:54;8.30;74.40
6738;DHT22;3406;49.902;8.596;2023-02-01T16:46:23;8.30;74.90
6738;DHT22;3406;49.902;8.596;2023-02-01T16:48:53;8.30;74.70
6738;DHT22;3406;49.902;8.596;2023-02-01T16:51:21;8.30;74.60
6738;DHT22;3406;49.902;8.596;2023-02-01T16:53:50;8.30;74.40
6738;DHT22;3406;49.902;8.596;2023-02-01T16:56:18;8.30;74.50
6738;DHT22;3406;49.902;8.596;2023-02-01T16:58:46;8.30;74.40